createdAt,value
2023-01-29T00:01:56.760Z,100754.66
2023-01-29T00:04:24.277Z,100753.53
2023-01-29T00:06:51.192Z,100761.88
2023-01-29T00:09:18.638Z,100754.53
2023-01-29T00:11:45.611Z,100752.00
2023-01-29T00:14:13.240Z,100746.41
2023-01-29T00:16:40.093Z,100739.75
2023-01-29T00:19:07.330Z,100739.97
2023-01-29T00:21:34.658Z,100739.41
2023-01-29T00:24:01.608Z,100737.78
2023-01-29T00:26:29.014Z,100739.97
2023-01-29T00:29:02.003Z,100738.31
2023-01-29T00:31:29.319Z,100730.09
2023-01-29T00:33:56.425Z,100726.38
2023-01-29T00:36:25.358Z,100722.22
2023-01-29T00:39:02.897Z,100716.94
2023-01-29T00:41:51.101Z,100715.63
2023-01-29T00:44:37.306Z,100712.09
2023-01-29T00:47:05.202Z,100698.09
2023-01-29T00:49:32.045Z,100706.31
2023-01-29T00:52:17.429Z,100708.44
2023-01-29T00:54:44.429Z,100715.66
2023-01-29T00:57:36.204Z,100712.69
2023-01-29T01:00:07.635Z,100708.84
2023-01-29T01:02:53.165Z,100717.41
2023-01-29T01:05:20.428Z,100718.03
2023-01-29T01:07:53.567Z,100727.78
2023-01-29T01:10:29.287Z,100730.09
2023-01-29T01:13:07.189Z,100733.06
2023-01-29T01:15:37.437Z,100729.31
2023-01-29T01:18:05.049Z,100734.03
2023-01-29T01:20:35.501Z,100736.88
2023-01-29T01:23:03.254Z,100737.28
2023-01-29T01:25:30.065Z,100737.84
2023-01-29T01:30:26.959Z,100729.91
2023-01-29T01:32:54.111Z,100717.72
2023-01-29T01:35:21.137Z,100707.59
2023-01-29T01:37:48.108Z,100701.88
2023-01-29T01:40:19.320Z,100693.88
2023-01-29T01:42:55.668Z,100696.72
2023-01-29T01:45:36.576Z,100695.50
2023-01-29T01:48:13.204Z,100690.66
2023-01-29T01:51:06.854Z,100683.84
2023-01-29T01:53:52.610Z,100678.66
2023-01-29T01:56:38.161Z,100677.88
2023-01-29T01:59:10.920Z,100676.53
2023-01-29T02:01:42.885Z,100680.78
2023-01-29T02:04:35.157Z,100677.91
2023-01-29T02:07:23.819Z,100676.78
2023-01-29T02:10:01.851Z,100675.13
2023-01-29T02:12:31.215Z,100669.41
2023-01-29T02:14:58.169Z,100675.31
2023-01-29T02:17:25.243Z,100670.56
2023-01-29T02:20:24.438Z,100678.34
2023-01-29T02:23:12.207Z,100680.69
2023-01-29T02:26:27.632Z,100678.47
2023-01-29T02:29:22.695Z,100687.72
2023-01-29T02:32:17.538Z,100683.72
2023-01-29T02:35:14.653Z,100694.91
2023-01-29T02:38:18.220Z,100690.44
2023-01-29T02:41:01.616Z,100699.97
2023-01-29T02:43:58.021Z,100704.25
2023-01-29T02:46:37.342Z,100699.19
2023-01-29T02:49:24.716Z,100697.53
2023-01-29T02:52:17.394Z,100677.13
2023-01-29T02:54:53.459Z,100673.53
2023-01-29T02:57:29.112Z,100691.34
2023-01-29T03:00:09.599Z,100700.16
2023-01-29T03:02:49.704Z,100697.06
2023-01-29T03:05:30.991Z,100693.94
2023-01-29T03:08:06.692Z,100706.19
2023-01-29T03:10:58.659Z,100706.97
2023-01-29T03:14:07.465Z,100698.59
2023-01-29T03:16:45.837Z,100711.53
2023-01-29T03:19:26.032Z,100706.78
2023-01-29T03:21:59.972Z,100706.22
2023-01-29T03:25:08.987Z,100709.63
2023-01-29T03:28:02.518Z,100709.31
2023-01-29T03:30:59.426Z,100705.81
2023-01-29T03:33:47.054Z,100697.25
2023-01-29T03:36:26.879Z,100690.94
2023-01-29T03:38:53.946Z,100683.44
2023-01-29T03:41:36.796Z,100674.13
2023-01-29T03:44:43.366Z,100683.63
2023-01-29T03:47:27.582Z,100679.19
2023-01-29T03:50:13.206Z,100670.81
2023-01-29T03:52:46.101Z,100679.28
2023-01-29T03:55:22.957Z,100682.66
2023-01-29T03:58:00.959Z,100684.50
2023-01-29T04:00:37.791Z,100682.47
2023-01-29T04:03:17.062Z,100675.94
2023-01-29T04:06:09.870Z,100687.53
2023-01-29T04:09:01.873Z,100674.31
2023-01-29T04:11:31.105Z,100677.78
2023-01-29T04:13:58.471Z,100671.97
2023-01-29T04:16:44.774Z,100662.69
2023-01-29T04:19:30.631Z,100676.81
2023-01-29T04:22:21.132Z,100669.13
2023-01-29T04:24:50.143Z,100664.38
2023-01-29T04:27:44.365Z,100660.50
2023-01-29T04:30:39.674Z,100653.09
2023-01-29T04:33:22.171Z,100646.66
2023-01-29T04:36:18.246Z,100635.97
2023-01-29T04:39:03.776Z,100632.28
2023-01-29T04:41:59.803Z,100629.56
2023-01-29T04:44:40.087Z,100630.53
2023-01-29T04:47:49.487Z,100611.19
2023-01-29T04:50:30.207Z,100604.47
2023-01-29T04:53:15.737Z,100602.63
2023-01-29T04:55:55.382Z,100586.75
2023-01-29T04:58:41.720Z,100575.09
2023-01-29T05:01:14.151Z,100576.34
2023-01-29T05:03:45.902Z,100569.16
2023-01-29T05:06:14.063Z,100563.25
2023-01-29T05:08:42.275Z,100567.09
2023-01-29T05:11:10.066Z,100569.91
2023-01-29T05:13:41.091Z,100570.44
2023-01-29T05:16:12.749Z,100565.84
2023-01-29T05:18:40.974Z,100565.91
2023-01-29T05:21:09.451Z,100565.78
2023-01-29T05:23:36.938Z,100565.41
2023-01-29T05:26:04.424Z,100558.78
2023-01-29T05:28:31.669Z,100570.19
2023-01-29T05:30:58.644Z,100576.41
2023-01-29T05:33:31.313Z,100568.19
2023-01-29T05:36:01.297Z,100582.03
2023-01-29T05:38:28.270Z,100581.34
2023-01-29T05:40:55.122Z,100575.38
2023-01-29T05:43:25.114Z,100584.81
2023-01-29T05:46:01.581Z,100582.94
2023-01-29T05:48:29.917Z,100600.31
2023-01-29T05:51:04.317Z,100601.56
2023-01-29T05:53:32.412Z,100598.19
2023-01-29T05:56:02.480Z,100601.06
2023-01-29T05:58:31.854Z,100603.50
2023-01-29T06:00:58.734Z,100596.34
2023-01-29T06:03:25.875Z,100591.47
2023-01-29T06:05:52.735Z,100599.06
2023-01-29T06:08:19.664Z,100621.41
2023-01-29T06:10:46.457Z,100626.53
2023-01-29T06:13:13.346Z,100636.50
2023-01-29T06:15:41.843Z,100635.78
2023-01-29T06:18:08.671Z,100635.69
2023-01-29T06:20:35.610Z,100645.22
2023-01-29T06:23:02.625Z,100649.41
2023-01-29T06:25:29.486Z,100634.59
2023-01-29T06:27:59.310Z,100625.69
2023-01-29T06:30:26.843Z,100628.72
2023-01-29T06:32:58.780Z,100635.41
2023-01-29T06:35:26.080Z,100637.88
2023-01-29T06:37:53.326Z,100642.53
2023-01-29T06:40:20.377Z,100645.69
2023-01-29T06:42:47.185Z,100647.97
2023-01-29T06:45:14.218Z,100648.16
2023-01-29T06:47:41.239Z,100631.84
2023-01-29T06:50:08.837Z,100637.63
2023-01-29T06:52:35.702Z,100640.75
2023-01-29T06:55:02.603Z,100636.50
2023-01-29T06:57:30.182Z,100626.59
2023-01-29T06:59:57.161Z,100627.34
2023-01-29T07:02:24.157Z,100624.25
2023-01-29T07:04:51.238Z,100631.66
2023-01-29T07:07:18.519Z,100637.81
2023-01-29T07:09:45.518Z,100641.78
2023-01-29T07:12:12.348Z,100640.13
2023-01-29T07:14:39.231Z,100635.06
2023-01-29T07:17:06.045Z,100637.06
2023-01-29T07:19:33.033Z,100639.94
2023-01-29T07:22:02.467Z,100639.72
2023-01-29T07:24:29.500Z,100636.59
2023-01-29T07:26:56.857Z,100630.44
2023-01-29T07:29:23.970Z,100643.09
2023-01-29T07:31:50.959Z,100646.78
2023-01-29T07:34:17.989Z,100642.78
2023-01-29T07:36:44.893Z,100650.97
2023-01-29T07:39:11.784Z,100642.31
2023-01-29T07:41:38.589Z,100646.78
2023-01-29T07:44:15.501Z,100638.41
2023-01-29T07:46:42.427Z,100645.06
2023-01-29T07:49:09.367Z,100638.22
2023-01-29T07:51:36.232Z,100645.41
2023-01-29T07:54:03.119Z,100641.91
2023-01-29T07:56:30.130Z,100651.03
2023-01-29T07:58:57.039Z,100642.81
2023-01-29T08:01:24.067Z,100655.06
2023-01-29T08:03:51.494Z,100641.25
2023-01-29T08:06:19.327Z,100630.78
2023-01-29T08:08:46.292Z,100626.88
2023-01-29T08:11:13.216Z,100618.41
2023-01-29T08:13:40.106Z,100606.00
2023-01-29T08:16:07.740Z,100611.59
2023-01-29T08:18:38.605Z,100611.25
2023-01-29T08:21:05.858Z,100615.34
2023-01-29T08:23:32.702Z,100605.69
2023-01-29T08:25:59.695Z,100594.69
2023-01-29T08:28:26.748Z,100590.13
2023-01-29T08:30:53.815Z,100584.72
2023-01-29T08:33:29.826Z,100568.03
2023-01-29T08:36:04.362Z,100565.34
2023-01-29T08:38:31.345Z,100572.59
2023-01-29T08:40:58.239Z,100569.19
2023-01-29T08:43:25.264Z,100551.69
2023-01-29T08:45:52.254Z,100568.84
2023-01-29T08:48:19.112Z,100569.53
2023-01-29T08:50:46.127Z,100559.25
2023-01-29T08:53:13.069Z,100561.75
2023-01-29T08:55:41.362Z,100573.03
2023-01-29T08:58:11.607Z,100570.81
2023-01-29T09:00:39.009Z,100558.13
2023-01-29T09:03:07.800Z,100551.84
2023-01-29T09:05:39.461Z,100564.63
2023-01-29T09:08:09.026Z,100570.00
2023-01-29T09:10:36.033Z,100563.31
2023-01-29T09:13:03.104Z,100568.78
2023-01-29T09:15:30.167Z,100556.81
2023-01-29T09:17:57.053Z,100562.84
2023-01-29T09:20:24.074Z,100560.53
2023-01-29T09:22:53.538Z,100557.34
2023-01-29T09:25:20.484Z,100552.53
2023-01-29T09:27:47.346Z,100557.34
2023-01-29T09:30:14.668Z,100560.25
2023-01-29T09:32:57.265Z,100566.63
2023-01-29T09:35:24.515Z,100557.06
2023-01-29T09:37:52.360Z,100553.44
2023-01-29T09:40:34.500Z,100550.66
2023-01-29T09:43:43.609Z,100553.97
2023-01-29T09:46:27.345Z,100547.81
2023-01-29T09:49:07.093Z,100548.00
2023-01-29T09:51:45.022Z,100545.53
2023-01-29T09:54:29.676Z,100557.81
2023-01-29T09:56:57.515Z,100553.06
2023-01-29T09:59:29.872Z,100542.31
2023-01-29T10:02:14.685Z,100536.13
2023-01-29T10:05:26.935Z,100529.25
2023-01-29T10:09:07.781Z,100526.47
2023-01-29T10:12:07.841Z,100527.91
2023-01-29T10:15:17.929Z,100519.00
2023-01-29T10:18:31.706Z,100509.97
2023-01-29T10:21:19.665Z,100503.00
2023-01-29T10:24:10.853Z,100499.50
2023-01-29T10:26:40.593Z,100505.06
2023-01-29T10:29:14.408Z,100509.88
2023-01-29T10:31:41.483Z,100515.66
2023-01-29T10:34:22.155Z,100495.75
2023-01-29T10:36:50.404Z,100494.97
2023-01-29T10:39:23.215Z,100488.72
2023-01-29T10:42:29.711Z,100486.19
2023-01-29T10:45:30.441Z,100483.88
2023-01-29T10:48:31.031Z,100475.16
2023-01-29T10:51:22.485Z,100472.97
2023-01-29T10:54:13.333Z,100468.25
2023-01-29T10:57:01.432Z,100458.38
2023-01-29T11:00:13.156Z,100454.97
2023-01-29T11:02:48.644Z,100451.69
2023-01-29T11:05:31.129Z,100447.44
2023-01-29T11:08:21.578Z,100448.38
2023-01-29T11:11:11.818Z,100453.13
2023-01-29T11:14:10.754Z,100461.63
2023-01-29T11:16:56.442Z,100451.25
2023-01-29T11:19:40.095Z,100448.19
2023-01-29T11:22:19.823Z,100444.59
2023-01-29T11:25:07.918Z,100445.28
2023-01-29T11:27:52.116Z,100429.69
2023-01-29T11:30:28.346Z,100424.16
2023-01-29T11:33:18.573Z,100410.19
2023-01-29T11:35:46.131Z,100403.34
2023-01-29T11:38:15.719Z,100405.47
2023-01-29T11:40:43.584Z,100403.59
2023-01-29T11:43:30.871Z,100399.72
2023-01-29T11:46:05.043Z,100392.63
2023-01-29T11:48:58.988Z,100382.31
2023-01-29T11:51:39.989Z,100382.44
2023-01-29T11:54:15.124Z,100371.81
2023-01-29T11:56:45.415Z,100373.84
2023-01-29T11:59:32.292Z,100355.94
2023-01-29T12:02:28.236Z,100363.44
2023-01-29T12:04:59.564Z,100350.31
2023-01-29T12:07:26.687Z,100359.31
2023-01-29T12:09:59.710Z,100360.91
2023-01-29T12:12:34.768Z,100355.41
2023-01-29T12:15:09.020Z,100358.28
2023-01-29T12:17:39.541Z,100355.59
2023-01-29T12:20:18.474Z,100345.53
2023-01-29T12:23:21.027Z,100354.59
2023-01-29T12:26:15.842Z,100354.75
2023-01-29T12:28:48.226Z,100346.28
2023-01-29T12:31:33.995Z,100338.06
2023-01-29T12:34:43.500Z,100331.47
2023-01-29T12:38:16.908Z,100326.38
2023-01-29T12:41:06.027Z,100321.91
2023-01-29T12:43:42.907Z,100318.63
2023-01-29T12:46:22.488Z,100306.16
2023-01-29T12:48:50.660Z,100298.63
2023-01-29T12:51:28.015Z,100294.13
2023-01-29T12:54:04.981Z,100290.25
2023-01-29T12:56:52.711Z,100285.81
2023-01-29T12:59:36.585Z,100278.97
2023-01-29T13:02:42.101Z,100275.06
2023-01-29T13:05:37.669Z,100269.03
2023-01-29T13:08:16.317Z,100270.84
2023-01-29T13:10:50.619Z,100265.75
2023-01-29T13:13:54.090Z,100264.50
2023-01-29T13:16:30.931Z,100265.66
2023-01-29T13:19:04.654Z,100258.03
2023-01-29T13:21:39.847Z,100260.25
2023-01-29T13:24:23.899Z,100261.19
2023-01-29T13:26:51.536Z,100253.69
2023-01-29T13:29:28.457Z,100257.91
2023-01-29T13:31:58.528Z,100249.47
2023-01-29T13:34:46.535Z,100248.81
2023-01-29T13:37:29.891Z,100243.84
2023-01-29T13:39:59.551Z,100250.13
2023-01-29T13:42:49.987Z,100255.84
2023-01-29T13:45:21.426Z,100250.31
2023-01-29T13:47:49.999Z,100249.47
2023-01-29T13:50:36.054Z,100247.97
2023-01-29T13:53:06.651Z,100243.09
2023-01-29T13:55:39.337Z,100236.63
2023-01-29T13:58:17.061Z,100234.53
2023-01-29T14:00:43.879Z,100233.34
2023-01-29T14:03:13.448Z,100225.72
2023-01-29T14:05:42.197Z,100230.59
2023-01-29T14:08:08.978Z,100240.16
2023-01-29T14:10:37.636Z,100239.06
2023-01-29T14:13:04.420Z,100239.47
2023-01-29T14:15:36.893Z,100232.59
2023-01-29T14:18:18.883Z,100233.25
2023-01-29T14:20:48.464Z,100226.16
2023-01-29T14:23:30.679Z,100219.03
2023-01-29T14:26:02.712Z,100217.84
2023-01-29T14:28:32.560Z,100215.75
2023-01-29T14:31:00.036Z,100220.94
2023-01-29T14:33:40.998Z,100231.13
2023-01-29T14:36:15.955Z,100222.47
2023-01-29T14:38:52.533Z,100227.63
2023-01-29T14:41:35.687Z,100223.16
2023-01-29T14:44:46.787Z,100222.31
2023-01-29T14:47:28.932Z,100228.19
2023-01-29T14:49:59.044Z,100225.50
2023-01-29T14:52:33.722Z,100218.75
2023-01-29T14:55:06.757Z,100211.97
2023-01-29T14:57:34.102Z,100212.16
2023-01-29T15:00:07.211Z,100212.94
2023-01-29T15:02:45.480Z,100212.47
2023-01-29T15:05:21.690Z,100209.50
2023-01-29T15:08:08.384Z,100208.75
2023-01-29T15:11:12.487Z,100200.66
2023-01-29T15:14:15.045Z,100198.94
2023-01-29T15:17:06.725Z,100193.56
2023-01-29T15:19:44.796Z,100199.88
2023-01-29T15:22:15.855Z,100199.88
2023-01-29T15:24:44.433Z,100196.50
2023-01-29T15:27:19.473Z,100193.66
2023-01-29T15:29:58.984Z,100191.91
2023-01-29T15:32:40.315Z,100194.25
2023-01-29T15:35:27.512Z,100187.03
2023-01-29T15:38:18.338Z,100192.16
2023-01-29T15:41:04.608Z,100191.16
2023-01-29T15:43:37.414Z,100190.31
2023-01-29T15:46:28.048Z,100185.03
2023-01-29T15:49:00.108Z,100183.00
2023-01-29T15:51:28.998Z,100189.69
2023-01-29T15:54:05.688Z,100190.28
2023-01-29T15:56:53.081Z,100184.94
2023-01-29T15:59:29.342Z,100191.09
2023-01-29T16:01:56.430Z,100187.09
2023-01-29T16:04:31.388Z,100185.66
2023-01-29T16:07:00.494Z,100183.78
2023-01-29T16:09:28.793Z,100180.38
2023-01-29T16:11:58.829Z,100178.97
2023-01-29T16:14:26.762Z,100160.41
2023-01-29T16:16:53.986Z,100169.41
2023-01-29T16:19:27.002Z,100157.97
2023-01-29T16:22:02.259Z,100163.06
2023-01-29T16:24:32.539Z,100152.69
2023-01-29T16:27:07.190Z,100153.75
2023-01-29T16:29:35.583Z,100154.09
2023-01-29T16:32:03.626Z,100157.16
2023-01-29T16:34:48.283Z,100148.84
2023-01-29T16:37:23.518Z,100155.38
2023-01-29T16:39:52.723Z,100152.22
2023-01-29T16:42:32.247Z,100149.41
2023-01-29T16:45:05.215Z,100132.56
2023-01-29T16:47:43.621Z,100142.69
2023-01-29T16:50:36.046Z,100133.06
2023-01-29T16:53:23.289Z,100138.88
2023-01-29T16:55:52.493Z,100131.19
2023-01-29T16:58:22.827Z,100125.69
2023-01-29T17:00:59.414Z,100126.31
2023-01-29T17:03:30.039Z,100113.91
2023-01-29T17:05:57.195Z,100113.97
2023-01-29T17:08:32.139Z,100109.56
2023-01-29T17:11:00.106Z,100104.44
2023-01-29T17:13:38.623Z,100096.81
2023-01-29T17:16:32.584Z,100101.03
2023-01-29T17:19:00.206Z,100087.53
2023-01-29T17:21:29.162Z,100089.78
2023-01-29T17:23:56.306Z,100075.72
2023-01-29T17:26:24.677Z,100067.31
2023-01-29T17:28:53.506Z,100057.50
2023-01-29T17:31:20.473Z,100056.47
2023-01-29T17:33:47.891Z,100049.94
2023-01-29T17:36:17.739Z,100032.88
2023-01-29T17:38:47.021Z,100029.63
2023-01-29T17:41:13.740Z,100019.78
2023-01-29T17:43:40.792Z,100019.03
2023-01-29T17:46:14.875Z,100012.81
2023-01-29T17:48:41.938Z,100016.50
2023-01-29T17:51:14.627Z,100024.44
2023-01-29T17:53:45.993Z,100036.47
2023-01-29T17:56:21.092Z,100031.09
2023-01-29T17:58:48.063Z,100020.97
2023-01-29T18:01:14.983Z,100032.06
2023-01-29T18:03:41.893Z,100022.56
2023-01-29T18:06:10.847Z,100038.31
2023-01-29T18:08:39.707Z,100043.13
2023-01-29T18:11:07.048Z,100041.78
2023-01-29T18:13:36.121Z,100039.25
2023-01-29T18:16:03.284Z,100043.66
2023-01-29T18:18:30.405Z,100044.19
2023-01-29T18:20:57.311Z,100033.19
2023-01-29T18:23:24.354Z,100035.94
2023-01-29T18:25:52.715Z,100028.84
2023-01-29T18:28:19.741Z,100028.56
2023-01-29T18:30:47.569Z,100023.34
2023-01-29T18:33:16.440Z,100021.97
2023-01-29T18:35:49.467Z,100021.03
2023-01-29T18:38:17.732Z,100015.16
2023-01-29T18:40:44.616Z,100014.63
2023-01-29T18:43:11.579Z,100006.56
2023-01-29T18:45:38.534Z,100007.34
2023-01-29T18:48:05.862Z,99997.06
2023-01-29T18:50:33.396Z,99998.81
2023-01-29T18:53:00.736Z,99996.53
2023-01-29T18:55:27.696Z,99984.25
2023-01-29T18:58:26.624Z,99984.38
2023-01-29T19:00:42.641Z,99978.53
2023-01-29T19:03:10.789Z,99968.94
2023-01-29T19:05:37.873Z,99966.22
2023-01-29T19:08:05.761Z,99961.13
2023-01-29T19:10:33.777Z,99957.94
2023-01-29T19:13:01.484Z,99956.22
2023-01-29T19:15:28.731Z,99967.84
2023-01-29T19:17:56.729Z,99961.75
2023-01-29T19:20:23.604Z,99954.31
2023-01-29T19:22:50.637Z,99949.66
2023-01-29T19:25:19.601Z,99947.78
2023-01-29T19:27:46.966Z,99945.25
2023-01-29T19:30:14.211Z,99950.19
2023-01-29T19:32:41.442Z,99942.25
2023-01-29T19:35:08.495Z,99935.72
2023-01-29T19:37:35.394Z,99911.94
2023-01-29T19:40:02.387Z,99913.47
2023-01-29T19:42:29.469Z,99903.38
2023-01-29T19:44:56.453Z,99901.03
2023-01-29T19:47:23.421Z,99896.63
2023-01-29T19:49:50.354Z,99885.69
2023-01-29T19:52:49.882Z,99877.16
2023-01-29T19:55:18.580Z,99878.09
2023-01-29T19:57:45.834Z,99867.97
2023-01-29T20:00:15.472Z,99872.19
2023-01-29T20:02:42.332Z,99867.94
2023-01-29T20:05:12.019Z,99861.56
2023-01-29T20:07:40.038Z,99872.31
2023-01-29T20:10:11.275Z,99867.50
2023-01-29T20:12:39.662Z,99866.66
2023-01-29T20:15:07.504Z,99865.28
2023-01-29T20:17:34.423Z,99864.47
2023-01-29T20:20:01.289Z,99859.47
2023-01-29T20:22:29.967Z,99853.56
2023-01-29T20:24:57.088Z,99839.38
2023-01-29T20:27:24.559Z,99829.22
2023-01-29T20:29:52.588Z,99822.44
2023-01-29T20:32:19.818Z,99815.38
2023-01-29T20:34:51.812Z,99807.25
2023-01-29T20:37:19.543Z,99800.06
2023-01-29T20:39:47.118Z,99795.78
2023-01-29T20:42:14.136Z,99790.59
2023-01-29T20:44:41.685Z,99784.13
2023-01-29T20:47:08.668Z,99777.44
2023-01-29T20:49:35.719Z,99774.19
2023-01-29T20:52:02.657Z,99776.16
2023-01-29T20:54:30.043Z,99772.78
2023-01-29T20:56:57.255Z,99770.97
2023-01-29T20:59:24.402Z,99769.13
2023-01-29T21:01:51.455Z,99761.91
2023-01-29T21:04:18.451Z,99760.94
2023-01-29T21:06:45.388Z,99751.69
2023-01-29T21:09:12.220Z,99752.50
2023-01-29T21:11:39.144Z,99751.56
2023-01-29T21:14:06.089Z,99756.72
2023-01-29T21:16:33.003Z,99746.50
2023-01-29T21:19:00.055Z,99745.91
2023-01-29T21:21:27.076Z,99738.47
2023-01-29T21:23:54.480Z,99749.47
2023-01-29T21:26:23.218Z,99746.16
2023-01-29T21:28:50.138Z,99752.09
2023-01-29T21:31:17.692Z,99748.63
2023-01-29T21:33:44.795Z,99741.09
2023-01-29T21:36:12.299Z,99738.72
2023-01-29T21:38:39.928Z,99734.47
2023-01-29T21:41:09.986Z,99730.47
2023-01-29T21:43:37.831Z,99712.41
2023-01-29T21:46:13.793Z,99715.22
2023-01-29T21:48:41.068Z,99716.88
2023-01-29T21:51:08.317Z,99711.22
2023-01-29T21:53:36.630Z,99703.41
2023-01-29T21:56:05.915Z,99705.38
2023-01-29T21:58:32.807Z,99702.47
2023-01-29T22:01:28.036Z,99703.44
2023-01-29T22:03:47.544Z,99708.91
2023-01-29T22:06:15.376Z,99702.91
2023-01-29T22:08:42.674Z,99703.00
2023-01-29T22:11:10.096Z,99701.91
2023-01-29T22:13:37.290Z,99714.84
2023-01-29T22:16:05.853Z,99707.22
2023-01-29T22:18:33.204Z,99703.00
2023-01-29T22:21:02.641Z,99706.47
2023-01-29T22:23:31.181Z,99704.69
2023-01-29T22:26:07.190Z,99696.41
2023-01-29T22:28:35.074Z,99686.44
2023-01-29T22:31:04.088Z,99694.97
2023-01-29T22:33:31.834Z,99689.81
2023-01-29T22:35:58.731Z,99675.31
2023-01-29T22:38:25.998Z,99675.47
2023-01-29T22:40:54.623Z,99688.38
2023-01-29T22:43:22.747Z,99683.28
2023-01-29T22:45:49.568Z,99696.06
2023-01-29T22:48:16.500Z,99676.50
2023-01-29T22:50:53.786Z,99668.03
2023-01-29T22:53:20.862Z,99658.53
2023-01-29T22:55:55.701Z,99667.09
2023-01-29T22:58:22.680Z,99668.16
2023-01-29T23:00:52.276Z,99653.72
2023-01-29T23:03:19.132Z,99642.75
2023-01-29T23:05:46.040Z,99648.72
2023-01-29T23:08:12.937Z,99648.00
2023-01-29T23:10:39.773Z,99638.72
2023-01-29T23:13:06.723Z,99659.03
2023-01-29T23:15:33.548Z,99639.69
2023-01-29T23:18:00.467Z,99628.00
2023-01-29T23:20:27.376Z,99628.84
2023-01-29T23:22:54.368Z,99609.19
2023-01-29T23:25:21.276Z,99597.88
2023-01-29T23:27:48.179Z,99569.13
2023-01-29T23:30:15.068Z,99566.63
2023-01-29T23:32:42.438Z,99564.97
2023-01-29T23:35:09.690Z,99545.41
2023-01-29T23:37:36.570Z,99540.19
2023-01-29T23:40:03.941Z,99503.13
2023-01-29T23:42:30.880Z,99491.13
2023-01-29T23:44:57.928Z,99488.56
2023-01-29T23:47:24.791Z,99483.78
2023-01-29T23:49:52.814Z,99482.06
2023-01-29T23:52:19.852Z,99484.63
2023-01-29T23:54:46.677Z,99490.66
2023-01-29T23:57:13.574Z,99524.53
2023-01-29T23:59:40.386Z,99544.22
